createdAt,value
2022-08-16T00:00:45.405Z,22.39
2022-08-16T00:03:13.731Z,22.37
2022-08-16T00:05:48.452Z,22.28
2022-08-16T00:08:30.646Z,22.25
2022-08-16T00:11:06.519Z,22.13
2022-08-16T00:13:41.833Z,22.18
2022-08-16T00:17:06.637Z,22.05
2022-08-16T00:18:58.242Z,22.07
2022-08-16T00:21:25.529Z,21.92
2022-08-16T00:23:56.482Z,21.90
2022-08-16T00:26:35.104Z,21.94
2022-08-16T00:29:16.065Z,21.99
2022-08-16T00:32:00.090Z,22.09
2022-08-16T00:34:44.698Z,22.14
2022-08-16T00:37:24.549Z,22.24
2022-08-16T00:39:58.327Z,22.34
2022-08-16T00:42:32.005Z,22.27
2022-08-16T00:45:58.313Z,22.23
2022-08-16T00:48:30.445Z,22.38
2022-08-16T00:51:03.092Z,22.20
2022-08-16T00:53:32.512Z,22.16
2022-08-16T00:56:05.714Z,22.13
2022-08-16T00:58:35.514Z,22.12
2022-08-16T01:01:08.036Z,22.61
2022-08-16T01:03:37.371Z,22.30
2022-08-16T01:06:40.267Z,21.99
2022-08-16T01:09:06.034Z,21.88
2022-08-16T01:11:37.178Z,21.94
2022-08-16T01:14:30.055Z,21.93
2022-08-16T01:16:59.708Z,22.05
2022-08-16T01:19:41.303Z,21.98
2022-08-16T01:22:52.405Z,22.00
2022-08-16T01:25:21.683Z,22.04
2022-08-16T01:27:53.585Z,21.90
2022-08-16T01:30:34.647Z,21.97
2022-08-16T01:33:15.298Z,21.91
2022-08-16T01:35:56.765Z,21.91
2022-08-16T01:38:32.355Z,22.03
2022-08-16T01:41:08.184Z,21.99
2022-08-16T01:43:39.005Z,21.88
2022-08-16T01:46:29.847Z,21.84
2022-08-16T01:49:14.109Z,21.82
2022-08-16T01:51:43.905Z,21.73
2022-08-16T01:54:13.123Z,21.62
2022-08-16T01:56:49.618Z,21.42
2022-08-16T01:59:18.469Z,21.33
2022-08-16T02:01:49.794Z,21.38
2022-08-16T02:04:48.148Z,21.29
2022-08-16T02:07:11.375Z,21.23
2022-08-16T02:09:39.992Z,21.24
2022-08-16T02:12:49.353Z,21.22
2022-08-16T02:14:56.740Z,21.38
2022-08-16T02:17:26.585Z,21.41
2022-08-16T02:19:58.789Z,21.32
2022-08-16T02:22:34.072Z,21.09
2022-08-16T02:25:11.086Z,21.00
2022-08-16T02:27:42.976Z,20.94
2022-08-16T02:30:37.386Z,21.02
2022-08-16T02:33:03.487Z,20.88
2022-08-16T02:35:30.923Z,20.85
2022-08-16T02:38:08.597Z,20.80
2022-08-16T02:40:37.856Z,20.72
2022-08-16T02:43:04.749Z,20.67
2022-08-16T02:45:32.317Z,20.63
2022-08-16T02:48:01.449Z,20.83
2022-08-16T02:50:54.412Z,20.75
2022-08-16T02:53:35.018Z,20.88
2022-08-16T02:56:02.427Z,20.91
2022-08-16T02:58:32.489Z,20.95
2022-08-16T03:01:00.096Z,20.85
2022-08-16T03:04:29.232Z,20.95
2022-08-16T03:06:36.484Z,20.87
2022-08-16T03:09:15.010Z,20.90
2022-08-16T03:11:47.620Z,20.93
2022-08-16T03:14:15.056Z,20.75
2022-08-16T03:16:59.764Z,20.83
2022-08-16T03:19:47.075Z,21.00
2022-08-16T03:22:28.929Z,21.24
2022-08-16T03:25:07.348Z,21.20
2022-08-16T03:27:35.830Z,21.37
2022-08-16T03:30:17.286Z,21.30
2022-08-16T03:32:51.728Z,21.39
2022-08-16T03:35:23.673Z,21.08
2022-08-16T03:38:03.792Z,20.98
2022-08-16T03:40:40.297Z,20.94
2022-08-16T03:43:20.562Z,20.78
2022-08-16T03:45:52.539Z,21.05
2022-08-16T03:48:36.271Z,21.00
2022-08-16T03:51:12.072Z,20.94
2022-08-16T03:53:45.725Z,20.80
2022-08-16T03:56:30.337Z,20.85
2022-08-16T03:58:58.689Z,20.71
2022-08-16T04:01:29.944Z,20.73
2022-08-16T04:03:57.476Z,20.70
2022-08-16T04:06:24.129Z,20.65
2022-08-16T04:08:51.493Z,20.65
2022-08-16T04:11:18.403Z,20.72
2022-08-16T04:14:01.748Z,20.60
2022-08-16T04:16:38.006Z,20.59
2022-08-16T04:19:31.801Z,20.72
2022-08-16T04:22:00.766Z,20.82
2022-08-16T04:24:30.788Z,21.10
2022-08-16T04:26:58.165Z,21.04
2022-08-16T04:29:27.765Z,21.01
2022-08-16T04:32:10.647Z,20.79
2022-08-16T04:34:40.844Z,20.91
2022-08-16T04:37:09.059Z,21.08
2022-08-16T04:39:47.195Z,21.07
2022-08-16T04:42:25.853Z,21.02
2022-08-16T04:44:56.100Z,20.94
2022-08-16T04:47:33.165Z,20.84
2022-08-16T04:50:10.780Z,20.75
2022-08-16T04:52:38.340Z,20.83
2022-08-16T04:55:11.809Z,20.86
2022-08-16T04:57:39.422Z,20.96
2022-08-16T05:00:32.201Z,20.74
2022-08-16T05:03:09.234Z,20.97
2022-08-16T05:06:02.175Z,20.97
2022-08-16T05:08:32.903Z,20.90
2022-08-16T05:11:17.026Z,21.00
2022-08-16T05:13:47.689Z,21.17
2022-08-16T05:16:27.226Z,21.45
2022-08-16T05:19:16.498Z,21.40
2022-08-16T05:22:03.878Z,21.42
2022-08-16T05:24:34.086Z,21.40
2022-08-16T05:27:11.299Z,21.35
2022-08-16T05:29:57.601Z,21.29
2022-08-16T05:32:34.215Z,21.41
2022-08-16T05:35:11.008Z,21.49
2022-08-16T05:37:43.699Z,21.63
2022-08-16T05:40:14.319Z,21.71
2022-08-16T05:42:47.598Z,21.85
2022-08-16T05:45:22.030Z,21.90
2022-08-16T05:47:59.810Z,21.78
2022-08-16T05:50:28.222Z,21.83
2022-08-16T05:53:01.164Z,21.75
2022-08-16T05:55:28.712Z,21.71
2022-08-16T05:57:57.429Z,21.79
2022-08-16T06:00:25.087Z,21.98
2022-08-16T06:02:54.867Z,21.97
2022-08-16T06:05:41.647Z,22.02
2022-08-16T06:08:09.320Z,22.01
2022-08-16T06:11:02.622Z,21.94
2022-08-16T06:13:37.831Z,21.55
2022-08-16T06:16:18.096Z,21.60
2022-08-16T06:18:47.184Z,21.66
2022-08-16T06:21:23.740Z,21.79
2022-08-16T06:23:57.025Z,21.80
2022-08-16T06:26:36.563Z,21.93
2022-08-16T06:29:05.374Z,22.06
2022-08-16T06:31:38.477Z,22.10
2022-08-16T06:34:31.861Z,22.33
2022-08-16T06:37:03.603Z,22.28
2022-08-16T06:39:35.738Z,22.50
2022-08-16T06:42:22.662Z,22.55
2022-08-16T06:45:01.691Z,22.67
2022-08-16T06:47:53.051Z,22.69
2022-08-16T06:50:28.594Z,22.33
2022-08-16T06:53:01.042Z,22.36
2022-08-16T06:55:38.392Z,22.22
2022-08-16T06:58:22.454Z,22.31
2022-08-16T07:01:02.257Z,22.46
2022-08-16T07:03:32.446Z,22.30
2022-08-16T07:06:01.555Z,22.42
2022-08-16T07:08:34.821Z,22.31
2022-08-16T07:11:01.745Z,22.43
2022-08-16T07:14:03.967Z,22.30
2022-08-16T07:16:20.671Z,22.34
2022-08-16T07:19:01.454Z,22.46
2022-08-16T07:21:45.756Z,22.49
2022-08-16T07:24:30.216Z,22.38
2022-08-16T07:27:01.797Z,22.38
2022-08-16T07:29:31.556Z,22.23
2022-08-16T07:32:00.948Z,22.40
2022-08-16T07:34:35.393Z,22.62
2022-08-16T07:37:09.733Z,22.89
2022-08-16T07:39:56.565Z,23.11
2022-08-16T07:42:28.691Z,23.39
2022-08-16T07:45:03.290Z,23.41
2022-08-16T07:47:34.907Z,23.41
2022-08-16T07:50:05.465Z,23.59
2022-08-16T07:52:34.864Z,23.65
2022-08-16T07:55:07.887Z,23.61
2022-08-16T07:57:44.276Z,23.48
2022-08-16T08:00:26.508Z,23.57
2022-08-16T08:02:55.543Z,23.66
2022-08-16T08:05:35.804Z,23.66
2022-08-16T08:08:11.996Z,24.18
2022-08-16T08:10:52.352Z,24.21
2022-08-16T08:13:19.865Z,24.39
2022-08-16T08:16:07.419Z,24.49
2022-08-16T08:18:50.214Z,24.56
2022-08-16T08:21:27.194Z,24.53
2022-08-16T08:23:57.631Z,24.67
2022-08-16T08:26:25.222Z,24.83
2022-08-16T08:28:52.401Z,24.78
2022-08-16T08:31:20.137Z,25.04
2022-08-16T08:33:51.634Z,25.02
2022-08-16T08:36:33.097Z,24.95
2022-08-16T08:39:13.165Z,25.06
2022-08-16T08:41:43.385Z,25.24
2022-08-16T08:44:28.631Z,25.27
2022-08-16T08:47:01.575Z,25.16
2022-08-16T08:49:50.303Z,25.24
2022-08-16T08:52:47.878Z,25.51
2022-08-16T08:55:11.423Z,25.68
2022-08-16T08:57:45.097Z,25.72
2022-08-16T09:00:21.447Z,25.38
2022-08-16T09:02:55.160Z,25.42
2022-08-16T09:05:26.169Z,25.25
2022-08-16T09:08:06.021Z,25.52
2022-08-16T09:11:07.465Z,25.73
2022-08-16T09:13:36.194Z,25.86
2022-08-16T09:16:03.485Z,25.92
2022-08-16T09:18:35.337Z,26.13
2022-08-16T09:21:04.387Z,26.22
2022-08-16T09:23:36.689Z,26.18
2022-08-16T09:26:46.358Z,26.32
2022-08-16T09:29:14.836Z,26.29
2022-08-16T09:31:42.817Z,26.39
2022-08-16T09:34:10.533Z,26.40
2022-08-16T09:36:46.184Z,26.38
2022-08-16T09:39:16.258Z,26.46
2022-08-16T09:41:53.164Z,26.76
2022-08-16T09:45:09.568Z,26.47
2022-08-16T09:47:12.197Z,26.59
2022-08-16T09:49:41.078Z,26.43
2022-08-16T09:52:09.998Z,26.58
2022-08-16T09:54:37.252Z,26.79
2022-08-16T09:57:04.897Z,26.20
2022-08-16T09:59:38.361Z,25.94
2022-08-16T10:02:27.435Z,26.03
2022-08-16T10:04:55.296Z,25.75
2022-08-16T10:07:23.638Z,25.91
2022-08-16T10:09:54.650Z,25.81
2022-08-16T10:12:46.861Z,26.12
2022-08-16T10:15:22.659Z,25.88
2022-08-16T10:18:00.311Z,25.92
2022-08-16T10:20:32.401Z,25.90
2022-08-16T10:23:06.846Z,26.09
2022-08-16T10:27:19.841Z,25.97
2022-08-16T10:28:32.031Z,25.79
2022-08-16T10:31:07.355Z,25.73
2022-08-16T10:33:40.240Z,25.75
2022-08-16T10:36:08.941Z,25.86
2022-08-16T10:38:38.171Z,25.88
2022-08-16T10:41:10.346Z,26.00
2022-08-16T10:43:38.452Z,26.31
2022-08-16T10:46:39.303Z,26.51
2022-08-16T10:48:57.216Z,26.57
2022-08-16T10:51:33.345Z,26.43
2022-08-16T10:54:00.575Z,26.47
2022-08-16T10:56:52.627Z,26.63
2022-08-16T10:59:39.166Z,26.36
2022-08-16T11:07:55.003Z,26.50
2022-08-16T11:13:57.382Z,26.69
2022-08-16T11:19:04.145Z,26.98
2022-08-16T11:21:36.967Z,26.77
2022-08-16T11:24:05.401Z,26.82
2022-08-16T11:27:23.175Z,26.83
2022-08-16T11:29:39.356Z,26.77
2022-08-16T11:32:07.623Z,26.88
2022-08-16T11:35:05.910Z,27.08
2022-08-16T11:37:27.651Z,27.10
2022-08-16T11:40:11.246Z,27.32
2022-08-16T11:42:38.410Z,27.36
2022-08-16T11:45:07.655Z,27.59
2022-08-16T11:47:34.437Z,27.47
2022-08-16T11:50:01.084Z,26.86
2022-08-16T11:52:29.341Z,26.73
2022-08-16T11:55:00.145Z,26.77
2022-08-16T11:57:27.157Z,27.06
2022-08-16T11:59:54.612Z,27.08
2022-08-16T12:02:31.153Z,27.27
2022-08-16T12:04:59.839Z,27.34
2022-08-16T12:07:29.616Z,27.28
2022-08-16T12:10:01.268Z,27.34
2022-08-16T12:12:29.864Z,27.37
2022-08-16T12:15:00.711Z,27.21
2022-08-16T12:17:32.375Z,27.12
2022-08-16T12:20:07.604Z,27.11
2022-08-16T12:22:36.980Z,27.22
2022-08-16T12:25:15.354Z,27.20
2022-08-16T12:27:44.353Z,27.21
2022-08-16T12:30:21.283Z,27.31
2022-08-16T12:32:56.491Z,27.36
2022-08-16T12:35:27.203Z,27.31
2022-08-16T12:37:57.830Z,27.55
2022-08-16T12:40:31.667Z,27.41
2022-08-16T12:43:01.396Z,27.28
2022-08-16T12:45:31.474Z,27.18
2022-08-16T12:48:33.917Z,27.36
2022-08-16T12:51:19.988Z,27.29
2022-08-16T12:53:53.154Z,27.55
2022-08-16T12:56:25.104Z,27.43
2022-08-16T12:58:55.935Z,27.55
2022-08-16T13:01:27.394Z,27.72
2022-08-16T13:04:12.441Z,27.76
2022-08-16T13:06:43.397Z,27.51
2022-08-16T13:09:26.477Z,27.51
2022-08-16T13:12:18.968Z,27.62
2022-08-16T13:14:47.635Z,27.62
2022-08-16T13:17:23.923Z,27.96
2022-08-16T13:20:09.974Z,28.12
2022-08-16T13:22:54.747Z,28.03
2022-08-16T13:25:23.916Z,28.00
2022-08-16T13:28:02.575Z,28.23
2022-08-16T13:30:42.393Z,28.22
2022-08-16T13:33:19.003Z,28.24
2022-08-16T13:36:00.832Z,28.41
2022-08-16T13:38:37.183Z,28.28
2022-08-16T13:41:08.422Z,28.62
2022-08-16T13:43:35.853Z,28.58
2022-08-16T13:46:04.615Z,28.62
2022-08-16T13:48:42.610Z,28.65
2022-08-16T13:51:18.732Z,28.59
2022-08-16T13:53:54.395Z,28.80
2022-08-16T13:56:25.928Z,28.53
2022-08-16T13:59:04.779Z,28.51
2022-08-16T14:01:33.059Z,28.36
2022-08-16T14:04:03.751Z,28.38
2022-08-16T14:06:31.169Z,28.70
2022-08-16T14:09:06.067Z,28.90
2022-08-16T14:11:34.449Z,29.12
2022-08-16T14:14:01.716Z,29.39
2022-08-16T14:19:18.347Z,29.68
2022-08-16T14:21:56.724Z,29.65
2022-08-16T14:24:36.909Z,29.74
2022-08-16T14:27:04.716Z,29.98
2022-08-16T14:29:35.009Z,30.31
2022-08-16T14:32:06.484Z,30.29
2022-08-16T14:34:33.414Z,30.21
2022-08-16T14:37:00.751Z,30.64
2022-08-16T14:39:27.416Z,30.88
2022-08-16T14:41:55.752Z,31.06
2022-08-16T14:44:23.900Z,31.13
2022-08-16T14:46:53.042Z,31.67
2022-08-16T14:49:20.090Z,31.36
2022-08-16T14:51:48.673Z,32.63
2022-08-16T14:54:15.642Z,33.97
2022-08-16T14:56:46.844Z,35.52
2022-08-16T14:59:22.461Z,35.58
2022-08-16T15:01:59.790Z,36.19
2022-08-16T15:04:39.367Z,36.33
2022-08-16T15:07:12.635Z,34.85
2022-08-16T15:10:01.026Z,35.45
2022-08-16T15:12:33.983Z,34.71
2022-08-16T15:15:16.481Z,35.74
2022-08-16T15:17:56.253Z,35.95
2022-08-16T15:20:26.963Z,34.32
2022-08-16T15:22:57.017Z,33.99
2022-08-16T15:25:29.564Z,33.29
2022-08-16T15:27:58.551Z,33.39
2022-08-16T15:30:58.347Z,33.39
2022-08-16T15:33:19.487Z,31.92
2022-08-16T15:35:49.961Z,31.05
2022-08-16T15:38:31.628Z,31.35
2022-08-16T15:41:05.079Z,30.96
2022-08-16T15:43:39.413Z,30.32
2022-08-16T15:46:35.820Z,30.30
2022-08-16T15:49:12.397Z,29.78
2022-08-16T15:51:39.907Z,29.63
2022-08-16T15:54:29.179Z,29.90
2022-08-16T15:56:55.172Z,30.05
2022-08-16T15:59:24.741Z,29.55
2022-08-16T16:01:56.597Z,29.61
2022-08-16T16:04:28.364Z,29.52
2022-08-16T16:06:59.345Z,29.55
2022-08-16T16:09:36.615Z,29.66
2022-08-16T16:12:16.321Z,29.44
2022-08-16T16:14:52.013Z,29.23
2022-08-16T16:17:18.675Z,29.18
2022-08-16T16:19:45.639Z,29.18
2022-08-16T16:22:17.468Z,29.15
2022-08-16T16:24:47.022Z,29.13
2022-08-16T16:27:14.089Z,29.05
2022-08-16T16:29:42.875Z,29.15
2022-08-16T16:32:13.655Z,29.37
2022-08-16T16:34:43.187Z,29.09
2022-08-16T16:37:10.259Z,29.14
2022-08-16T16:39:37.349Z,28.93
2022-08-16T16:42:05.205Z,29.35
2022-08-16T16:44:36.342Z,29.22
2022-08-16T16:47:04.337Z,29.02
2022-08-16T16:49:32.869Z,28.98
2022-08-16T16:52:07.189Z,28.83
2022-08-16T16:54:35.471Z,28.70
2022-08-16T16:57:02.890Z,28.70
2022-08-16T16:59:30.489Z,28.94
2022-08-16T17:02:39.344Z,29.07
2022-08-16T17:04:47.277Z,29.11
2022-08-16T17:07:14.612Z,28.88
2022-08-16T17:09:41.569Z,28.69
2022-08-16T17:12:23.598Z,28.96
2022-08-16T17:14:55.842Z,29.25
2022-08-16T17:17:25.082Z,29.08
2022-08-16T17:19:52.319Z,28.90
2022-08-16T17:22:22.127Z,29.08
2022-08-16T17:24:52.430Z,28.86
2022-08-16T17:27:33.247Z,28.86
2022-08-16T17:30:44.715Z,29.09
2022-08-16T17:33:13.217Z,29.07
2022-08-16T17:35:45.655Z,28.87
2022-08-16T17:38:38.936Z,29.06
2022-08-16T17:41:11.757Z,28.98
2022-08-16T17:43:44.253Z,28.89
2022-08-16T17:46:50.516Z,28.69
2022-08-16T17:48:59.444Z,28.79
2022-08-16T17:51:27.526Z,28.85
2022-08-16T17:53:54.659Z,28.85
2022-08-16T17:56:21.479Z,28.89
2022-08-16T17:58:48.170Z,28.73
2022-08-16T18:01:15.050Z,28.86
2022-08-16T18:04:09.213Z,28.69
2022-08-16T18:06:29.303Z,28.52
2022-08-16T18:09:02.501Z,28.57
2022-08-16T18:11:33.736Z,28.80
2022-08-16T18:14:00.469Z,28.88
2022-08-16T18:16:27.099Z,28.69
2022-08-16T18:18:53.873Z,28.55
2022-08-16T18:21:39.767Z,28.57
2022-08-16T18:24:06.793Z,28.44
2022-08-16T18:26:34.077Z,28.48
2022-08-16T18:29:00.827Z,28.41
2022-08-16T18:31:27.572Z,28.30
2022-08-16T18:33:55.566Z,28.32
2022-08-16T18:36:23.934Z,28.41
2022-08-16T18:38:51.821Z,28.48
2022-08-16T18:41:20.337Z,28.37
2022-08-16T18:44:14.196Z,28.41
2022-08-16T18:46:34.098Z,28.38
2022-08-16T18:49:00.917Z,28.28
2022-08-16T18:51:27.610Z,28.22
2022-08-16T18:53:54.421Z,28.21
2022-08-16T18:56:21.177Z,28.16
2022-08-16T18:58:48.755Z,28.35
2022-08-16T19:01:15.487Z,28.31
2022-08-16T19:03:42.258Z,28.23
2022-08-16T19:06:13.909Z,28.17
2022-08-16T19:08:46.102Z,28.10
2022-08-16T19:11:20.005Z,28.07
2022-08-16T19:13:47.201Z,28.01
2022-08-16T19:16:14.682Z,27.99
2022-08-16T19:18:41.727Z,27.96
2022-08-16T19:21:11.305Z,27.95
2022-08-16T19:23:43.521Z,27.94
2022-08-16T19:26:24.519Z,27.93
2022-08-16T19:28:59.078Z,27.91
2022-08-16T19:31:30.945Z,27.87
2022-08-16T19:33:58.045Z,27.90
2022-08-16T19:36:35.485Z,27.91
2022-08-16T19:39:08.856Z,27.89
2022-08-16T19:41:38.420Z,27.84
2022-08-16T19:44:06.578Z,27.79
2022-08-16T19:46:33.465Z,27.68
2022-08-16T19:49:00.517Z,27.71
2022-08-16T19:51:27.604Z,27.72
2022-08-16T19:53:54.301Z,27.73
2022-08-16T19:56:23.066Z,27.69
2022-08-16T19:59:16.370Z,27.67
2022-08-16T20:01:41.952Z,27.67
2022-08-16T20:04:12.309Z,27.80
2022-08-16T20:06:40.068Z,27.82
2022-08-16T20:09:07.077Z,27.87
2022-08-16T20:11:35.134Z,27.86
2022-08-16T20:14:02.694Z,27.87
2022-08-16T20:16:29.888Z,27.68
2022-08-16T20:18:56.550Z,27.56
2022-08-16T20:21:23.275Z,27.50
2022-08-16T20:23:50.012Z,27.41
2022-08-16T20:26:18.674Z,27.52
2022-08-16T20:28:54.095Z,27.41
2022-08-16T20:31:23.577Z,27.35
2022-08-16T20:33:51.605Z,27.23
2022-08-16T20:36:18.333Z,27.36
2022-08-16T20:38:47.360Z,27.35
2022-08-16T20:41:15.970Z,27.20
2022-08-16T20:43:43.474Z,27.16
2022-08-16T20:46:10.249Z,27.08
2022-08-16T20:48:36.950Z,27.12
2022-08-16T20:51:04.098Z,27.11
2022-08-16T20:53:30.892Z,27.17
2022-08-16T20:55:57.644Z,27.18
2022-08-16T20:58:24.546Z,27.12
2022-08-16T21:00:51.278Z,27.04
2022-08-16T21:03:18.007Z,27.11
2022-08-16T21:05:46.517Z,27.11
2022-08-16T21:08:52.545Z,27.13
2022-08-16T21:11:03.938Z,27.16
2022-08-16T21:13:32.552Z,27.19
2022-08-16T21:16:01.213Z,27.09
2022-08-16T21:18:28.043Z,27.13
2022-08-16T21:20:55.096Z,27.11
2022-08-16T21:23:22.177Z,26.80
2022-08-16T21:25:58.016Z,26.83
2022-08-16T21:28:42.743Z,26.94
2022-08-16T21:31:11.864Z,26.83
2022-08-16T21:33:38.801Z,26.83
2022-08-16T21:36:05.929Z,26.88
2022-08-16T21:38:32.695Z,26.84
2022-08-16T21:41:00.311Z,26.74
2022-08-16T21:43:31.659Z,26.86
2022-08-16T21:45:59.919Z,26.70
2022-08-16T21:48:34.724Z,26.92
2022-08-16T21:51:08.979Z,26.82
2022-08-16T21:53:36.166Z,26.69
2022-08-16T21:56:05.230Z,26.56
2022-08-16T21:58:32.387Z,26.47
2022-08-16T22:00:59.848Z,26.56
2022-08-16T22:03:26.531Z,26.47
2022-08-16T22:06:12.408Z,26.30
2022-08-16T22:08:48.087Z,26.47
2022-08-16T22:11:23.739Z,26.52
2022-08-16T22:13:58.707Z,26.50
2022-08-16T22:17:05.691Z,26.42
2022-08-16T22:19:43.723Z,26.50
2022-08-16T22:22:11.552Z,26.54
2022-08-16T22:24:38.529Z,26.41
2022-08-16T22:27:06.114Z,26.39
2022-08-16T22:29:32.808Z,26.28
2022-08-16T22:32:02.026Z,26.33
2022-08-16T22:34:28.788Z,26.34
2022-08-16T22:36:55.558Z,26.48
2022-08-16T22:39:22.272Z,26.20
2022-08-16T22:41:49.919Z,26.15
2022-08-16T22:44:17.784Z,26.09
2022-08-16T22:46:45.241Z,26.03
2022-08-16T22:49:12.807Z,26.01
2022-08-16T22:51:40.348Z,25.98
2022-08-16T22:54:47.414Z,25.80
2022-08-16T22:56:54.850Z,25.81
2022-08-16T22:59:21.513Z,25.82
2022-08-16T23:01:48.298Z,25.89
2022-08-16T23:04:15.084Z,25.90
2022-08-16T23:06:41.808Z,25.94
2022-08-16T23:09:08.576Z,25.85
2022-08-16T23:11:35.572Z,25.89
2022-08-16T23:14:02.516Z,25.88
2022-08-16T23:16:33.343Z,25.95
2022-08-16T23:19:09.321Z,25.77
2022-08-16T23:21:38.179Z,25.72
2022-08-16T23:24:06.425Z,25.66
2022-08-16T23:26:44.025Z,25.68
2022-08-16T23:29:23.475Z,25.73
2022-08-16T23:31:58.353Z,25.79
2022-08-16T23:34:27.834Z,25.79
2022-08-16T23:36:55.192Z,25.81
2022-08-16T23:39:22.531Z,25.74
2022-08-16T23:41:49.227Z,25.69
2022-08-16T23:44:56.779Z,25.56
2022-08-16T23:47:02.841Z,25.57
2022-08-16T23:49:57.666Z,25.60
2022-08-16T23:52:17.994Z,25.60
2022-08-16T23:54:44.691Z,25.60
2022-08-16T23:57:11.429Z,25.59
2022-08-16T23:59:53.475Z,25.66
